sensor_id;sensor_type;location;lat;lon;timestamp;P1;durP1;ratioP1;P2;durP2;ratioP2
19006;SDS011;9636;47.382;8.480;2022-10-16T00:01:15;5.20;;;2.80;;
19006;SDS011;9636;47.382;8.480;2022-10-16T00:03:51;8.90;;;3.53;;
19006;SDS011;9636;47.382;8.480;2022-10-16T00:06:28;11.43;;;2.60;;
19006;SDS011;9636;47.382;8.480;2022-10-16T00:08:59;11.07;;;2.90;;
19006;SDS011;9636;47.382;8.480;2022-10-16T00:11:30;3.80;;;2.67;;
19006;SDS011;9636;47.382;8.480;2022-10-16T00:14:06;9.80;;;2.87;;
19006;SDS011;9636;47.382;8.480;2022-10-16T00:17:33;5.57;;;2.80;;
19006;SDS011;9636;47.382;8.480;2022-10-16T00:20:07;7.67;;;2.83;;
19006;SDS011;9636;47.382;8.480;2022-10-16T00:22:36;6.70;;;2.93;;
19006;SDS011;9636;47.382;8.480;2022-10-16T00:25:08;3.70;;;3.00;;
19006;SDS011;9636;47.382;8.480;2022-10-16T00:27:46;6.23;;;3.20;;
19006;SDS011;9636;47.382;8.480;2022-10-16T00:30:14;8.50;;;3.00;;
19006;SDS011;9636;47.382;8.480;2022-10-16T00:32:48;5.37;;;2.60;;
19006;SDS011;9636;47.382;8.480;2022-10-16T00:38:02;12.30;;;3.23;;
19006;SDS011;9636;47.382;8.480;2022-10-16T00:40:29;7.83;;;2.70;;
19006;SDS011;9636;47.382;8.480;2022-10-16T00:42:56;7.17;;;3.30;;
19006;SDS011;9636;47.382;8.480;2022-10-16T00:45:25;7.30;;;2.70;;
19006;SDS011;9636;47.382;8.480;2022-10-16T00:47:53;4.10;;;3.07;;
19006;SDS011;9636;47.382;8.480;2022-10-16T00:50:27;4.83;;;2.47;;
19006;SDS011;9636;47.382;8.480;2022-10-16T00:53:01;9.63;;;2.80;;
19006;SDS011;9636;47.382;8.480;2022-10-16T00:55:31;10.47;;;3.30;;
19006;SDS011;9636;47.382;8.480;2022-10-16T00:58:03;6.50;;;3.23;;
19006;SDS011;9636;47.382;8.480;2022-10-16T01:00:32;6.93;;;3.07;;
19006;SDS011;9636;47.382;8.480;2022-10-16T01:03:02;5.13;;;3.43;;
19006;SDS011;9636;47.382;8.480;2022-10-16T01:05:31;4.77;;;3.00;;
19006;SDS011;9636;47.382;8.480;2022-10-16T01:08:04;5.90;;;2.80;;
19006;SDS011;9636;47.382;8.480;2022-10-16T01:10:41;6.80;;;2.53;;
19006;SDS011;9636;47.382;8.480;2022-10-16T01:13:24;4.67;;;2.70;;
19006;SDS011;9636;47.382;8.480;2022-10-16T01:15:59;4.40;;;2.50;;
19006;SDS011;9636;47.382;8.480;2022-10-16T01:18:34;4.83;;;2.60;;
19006;SDS011;9636;47.382;8.480;2022-10-16T01:21:12;8.20;;;2.57;;
19006;SDS011;9636;47.382;8.480;2022-10-16T01:23:55;8.13;;;2.73;;
19006;SDS011;9636;47.382;8.480;2022-10-16T01:26:34;5.53;;;2.60;;
19006;SDS011;9636;47.382;8.480;2022-10-16T01:29:14;6.23;;;2.70;;
19006;SDS011;9636;47.382;8.480;2022-10-16T01:31:50;5.47;;;2.40;;
19006;SDS011;9636;47.382;8.480;2022-10-16T01:34:31;8.50;;;2.80;;
19006;SDS011;9636;47.382;8.480;2022-10-16T01:37:04;2.87;;;2.50;;
19006;SDS011;9636;47.382;8.480;2022-10-16T01:39:36;11.33;;;2.97;;
19006;SDS011;9636;47.382;8.480;2022-10-16T01:42:11;5.93;;;2.40;;
19006;SDS011;9636;47.382;8.480;2022-10-16T01:44:43;3.30;;;2.67;;
19006;SDS011;9636;47.382;8.480;2022-10-16T01:47:13;4.90;;;2.60;;
19006;SDS011;9636;47.382;8.480;2022-10-16T01:49:48;4.23;;;2.40;;
19006;SDS011;9636;47.382;8.480;2022-10-16T01:52:34;7.37;;;2.70;;
19006;SDS011;9636;47.382;8.480;2022-10-16T01:55:06;4.83;;;2.53;;
19006;SDS011;9636;47.382;8.480;2022-10-16T01:57:36;7.40;;;2.70;;
19006;SDS011;9636;47.382;8.480;2022-10-16T02:00:12;5.90;;;2.70;;
19006;SDS011;9636;47.382;8.480;2022-10-16T02:02:43;8.60;;;2.83;;
19006;SDS011;9636;47.382;8.480;2022-10-16T02:05:22;5.17;;;2.43;;
19006;SDS011;9636;47.382;8.480;2022-10-16T02:07:57;4.30;;;2.73;;
19006;SDS011;9636;47.382;8.480;2022-10-16T02:10:25;6.03;;;2.67;;
19006;SDS011;9636;47.382;8.480;2022-10-16T02:12:57;3.70;;;2.27;;
19006;SDS011;9636;47.382;8.480;2022-10-16T02:15:32;6.30;;;3.00;;
19006;SDS011;9636;47.382;8.480;2022-10-16T02:18:00;8.97;;;2.70;;
19006;SDS011;9636;47.382;8.480;2022-10-16T02:20:43;5.93;;;2.80;;
19006;SDS011;9636;47.382;8.480;2022-10-16T02:23:20;8.00;;;2.60;;
19006;SDS011;9636;47.382;8.480;2022-10-16T02:25:59;6.80;;;2.17;;
19006;SDS011;9636;47.382;8.480;2022-10-16T02:28:32;7.00;;;2.80;;
19006;SDS011;9636;47.382;8.480;2022-10-16T02:31:08;4.90;;;2.40;;
19006;SDS011;9636;47.382;8.480;2022-10-16T02:33:42;10.30;;;2.40;;
19006;SDS011;9636;47.382;8.480;2022-10-16T02:36:12;4.80;;;2.07;;
19006;SDS011;9636;47.382;8.480;2022-10-16T02:38:39;6.57;;;2.00;;
19006;SDS011;9636;47.382;8.480;2022-10-16T02:41:09;7.33;;;2.17;;
19006;SDS011;9636;47.382;8.480;2022-10-16T02:43:38;11.10;;;2.20;;
19006;SDS011;9636;47.382;8.480;2022-10-16T02:46:06;3.40;;;1.93;;
19006;SDS011;9636;47.382;8.480;2022-10-16T02:48:33;7.60;;;2.50;;
19006;SDS011;9636;47.382;8.480;2022-10-16T02:51:08;5.50;;;2.77;;
19006;SDS011;9636;47.382;8.480;2022-10-16T02:53:36;5.13;;;2.47;;
19006;SDS011;9636;47.382;8.480;2022-10-16T02:56:10;5.93;;;2.20;;
19006;SDS011;9636;47.382;8.480;2022-10-16T02:58:37;4.33;;;2.43;;
19006;SDS011;9636;47.382;8.480;2022-10-16T03:01:04;9.53;;;2.80;;
19006;SDS011;9636;47.382;8.480;2022-10-16T03:03:32;7.50;;;2.77;;
19006;SDS011;9636;47.382;8.480;2022-10-16T03:05:59;6.80;;;2.70;;
19006;SDS011;9636;47.382;8.480;2022-10-16T03:08:26;8.07;;;2.50;;
19006;SDS011;9636;47.382;8.480;2022-10-16T03:10:52;3.40;;;2.33;;
19006;SDS011;9636;47.382;8.480;2022-10-16T03:13:19;6.00;;;2.73;;
19006;SDS011;9636;47.382;8.480;2022-10-16T03:15:46;6.33;;;2.30;;
19006;SDS011;9636;47.382;8.480;2022-10-16T03:18:13;4.63;;;2.50;;
19006;SDS011;9636;47.382;8.480;2022-10-16T03:20:41;7.70;;;2.40;;
19006;SDS011;9636;47.382;8.480;2022-10-16T03:23:09;5.80;;;2.70;;
19006;SDS011;9636;47.382;8.480;2022-10-16T03:25:35;4.97;;;2.30;;
19006;SDS011;9636;47.382;8.480;2022-10-16T03:28:02;6.70;;;2.30;;
19006;SDS011;9636;47.382;8.480;2022-10-16T03:30:29;8.73;;;2.30;;
19006;SDS011;9636;47.382;8.480;2022-10-16T03:32:56;10.03;;;2.33;;
19006;SDS011;9636;47.382;8.480;2022-10-16T03:35:23;4.07;;;2.10;;
19006;SDS011;9636;47.382;8.480;2022-10-16T03:37:52;3.97;;;2.13;;
19006;SDS011;9636;47.382;8.480;2022-10-16T03:40:18;2.77;;;2.30;;
19006;SDS011;9636;47.382;8.480;2022-10-16T03:42:45;7.53;;;2.30;;
19006;SDS011;9636;47.382;8.480;2022-10-16T03:45:12;6.67;;;2.40;;
19006;SDS011;9636;47.382;8.480;2022-10-16T03:47:39;3.43;;;2.00;;
19006;SDS011;9636;47.382;8.480;2022-10-16T03:50:06;10.13;;;2.00;;
19006;SDS011;9636;47.382;8.480;2022-10-16T03:52:34;7.37;;;2.10;;
19006;SDS011;9636;47.382;8.480;2022-10-16T03:55:02;2.57;;;2.03;;
19006;SDS011;9636;47.382;8.480;2022-10-16T03:57:29;5.40;;;1.87;;
19006;SDS011;9636;47.382;8.480;2022-10-16T03:59:55;7.00;;;2.10;;
19006;SDS011;9636;47.382;8.480;2022-10-16T04:02:22;3.63;;;1.83;;
19006;SDS011;9636;47.382;8.480;2022-10-16T04:04:49;3.60;;;1.87;;
19006;SDS011;9636;47.382;8.480;2022-10-16T04:07:16;5.13;;;1.87;;
19006;SDS011;9636;47.382;8.480;2022-10-16T04:09:43;9.37;;;2.37;;
19006;SDS011;9636;47.382;8.480;2022-10-16T04:12:11;8.83;;;2.30;;
19006;SDS011;9636;47.382;8.480;2022-10-16T04:14:38;2.40;;;2.00;;
19006;SDS011;9636;47.382;8.480;2022-10-16T04:17:04;6.23;;;1.70;;
19006;SDS011;9636;47.382;8.480;2022-10-16T04:19:31;8.40;;;2.00;;
19006;SDS011;9636;47.382;8.480;2022-10-16T04:21:58;5.17;;;1.87;;
19006;SDS011;9636;47.382;8.480;2022-10-16T04:24:25;7.27;;;2.00;;
19006;SDS011;9636;47.382;8.480;2022-10-16T04:26:51;6.07;;;3.07;;
19006;SDS011;9636;47.382;8.480;2022-10-16T04:29:20;11.17;;;2.70;;
19006;SDS011;9636;47.382;8.480;2022-10-16T04:31:46;3.80;;;2.30;;
19006;SDS011;9636;47.382;8.480;2022-10-16T04:34:13;2.70;;;2.10;;
19006;SDS011;9636;47.382;8.480;2022-10-16T04:36:40;6.07;;;2.23;;
19006;SDS011;9636;47.382;8.480;2022-10-16T04:39:07;7.93;;;2.07;;
19006;SDS011;9636;47.382;8.480;2022-10-16T04:41:33;2.50;;;2.00;;
19006;SDS011;9636;47.382;8.480;2022-10-16T04:44:00;4.20;;;2.10;;
19006;SDS011;9636;47.382;8.480;2022-10-16T04:46:29;3.77;;;2.10;;
19006;SDS011;9636;47.382;8.480;2022-10-16T04:48:55;9.70;;;1.90;;
19006;SDS011;9636;47.382;8.480;2022-10-16T04:51:22;8.77;;;2.40;;
19006;SDS011;9636;47.382;8.480;2022-10-16T04:53:50;5.20;;;2.20;;
19006;SDS011;9636;47.382;8.480;2022-10-16T04:56:17;4.90;;;2.03;;
19006;SDS011;9636;47.382;8.480;2022-10-16T04:58:44;7.53;;;2.10;;
19006;SDS011;9636;47.382;8.480;2022-10-16T05:01:11;3.73;;;2.00;;
19006;SDS011;9636;47.382;8.480;2022-10-16T05:03:39;4.67;;;2.03;;
19006;SDS011;9636;47.382;8.480;2022-10-16T05:06:06;2.50;;;2.00;;
19006;SDS011;9636;47.382;8.480;2022-10-16T05:08:33;3.33;;;1.73;;
19006;SDS011;9636;47.382;8.480;2022-10-16T05:11:00;7.27;;;2.30;;
19006;SDS011;9636;47.382;8.480;2022-10-16T05:13:26;6.37;;;2.00;;
19006;SDS011;9636;47.382;8.480;2022-10-16T05:15:53;8.07;;;2.17;;
19006;SDS011;9636;47.382;8.480;2022-10-16T05:18:20;3.50;;;2.00;;
19006;SDS011;9636;47.382;8.480;2022-10-16T05:20:48;10.13;;;2.37;;
19006;SDS011;9636;47.382;8.480;2022-10-16T05:23:15;6.20;;;2.30;;
19006;SDS011;9636;47.382;8.480;2022-10-16T05:25:42;5.67;;;2.40;;
19006;SDS011;9636;47.382;8.480;2022-10-16T05:28:08;9.47;;;2.37;;
19006;SDS011;9636;47.382;8.480;2022-10-16T05:30:36;4.27;;;2.13;;
19006;SDS011;9636;47.382;8.480;2022-10-16T05:33:03;11.30;;;2.00;;
19006;SDS011;9636;47.382;8.480;2022-10-16T05:35:30;6.60;;;2.10;;
19006;SDS011;9636;47.382;8.480;2022-10-16T05:37:58;8.70;;;2.40;;
19006;SDS011;9636;47.382;8.480;2022-10-16T05:40:25;6.07;;;2.53;;
19006;SDS011;9636;47.382;8.480;2022-10-16T05:42:54;6.00;;;1.97;;
19006;SDS011;9636;47.382;8.480;2022-10-16T05:45:21;3.67;;;2.30;;
19006;SDS011;9636;47.382;8.480;2022-10-16T05:47:48;5.43;;;2.40;;
19006;SDS011;9636;47.382;8.480;2022-10-16T05:50:15;4.53;;;2.03;;
19006;SDS011;9636;47.382;8.480;2022-10-16T05:52:41;6.00;;;2.10;;
19006;SDS011;9636;47.382;8.480;2022-10-16T05:55:10;4.97;;;2.20;;
19006;SDS011;9636;47.382;8.480;2022-10-16T05:57:36;5.53;;;2.10;;
19006;SDS011;9636;47.382;8.480;2022-10-16T06:00:04;5.80;;;2.10;;
19006;SDS011;9636;47.382;8.480;2022-10-16T06:02:31;6.27;;;2.17;;
19006;SDS011;9636;47.382;8.480;2022-10-16T06:04:58;5.00;;;1.87;;
19006;SDS011;9636;47.382;8.480;2022-10-16T06:07:25;8.30;;;2.10;;
19006;SDS011;9636;47.382;8.480;2022-10-16T06:09:52;7.73;;;2.20;;
19006;SDS011;9636;47.382;8.480;2022-10-16T06:12:20;4.43;;;2.17;;
19006;SDS011;9636;47.382;8.480;2022-10-16T06:14:47;3.60;;;2.10;;
19006;SDS011;9636;47.382;8.480;2022-10-16T06:17:14;9.73;;;2.10;;
19006;SDS011;9636;47.382;8.480;2022-10-16T06:19:41;4.07;;;2.00;;
19006;SDS011;9636;47.382;8.480;2022-10-16T06:22:08;6.33;;;2.20;;
19006;SDS011;9636;47.382;8.480;2022-10-16T06:24:35;3.77;;;2.07;;
19006;SDS011;9636;47.382;8.480;2022-10-16T06:27:02;12.23;;;2.00;;
19006;SDS011;9636;47.382;8.480;2022-10-16T06:29:30;7.60;;;2.40;;
19006;SDS011;9636;47.382;8.480;2022-10-16T06:31:57;6.83;;;2.60;;
19006;SDS011;9636;47.382;8.480;2022-10-16T06:34:24;5.60;;;2.60;;
19006;SDS011;9636;47.382;8.480;2022-10-16T06:36:51;3.83;;;2.30;;
19006;SDS011;9636;47.382;8.480;2022-10-16T06:39:17;2.63;;;2.43;;
19006;SDS011;9636;47.382;8.480;2022-10-16T06:41:44;4.83;;;1.90;;
19006;SDS011;9636;47.382;8.480;2022-10-16T06:44:11;5.40;;;2.23;;
19006;SDS011;9636;47.382;8.480;2022-10-16T06:46:39;7.30;;;2.10;;
19006;SDS011;9636;47.382;8.480;2022-10-16T06:49:06;6.93;;;2.67;;
19006;SDS011;9636;47.382;8.480;2022-10-16T06:51:33;4.37;;;1.80;;
19006;SDS011;9636;47.382;8.480;2022-10-16T06:54:01;5.17;;;2.10;;
19006;SDS011;9636;47.382;8.480;2022-10-16T06:56:28;4.57;;;3.17;;
19006;SDS011;9636;47.382;8.480;2022-10-16T06:58:56;7.10;;;2.30;;
19006;SDS011;9636;47.382;8.480;2022-10-16T07:01:23;4.87;;;2.10;;
19006;SDS011;9636;47.382;8.480;2022-10-16T07:03:52;5.47;;;2.17;;
19006;SDS011;9636;47.382;8.480;2022-10-16T07:06:20;6.10;;;2.27;;
19006;SDS011;9636;47.382;8.480;2022-10-16T07:08:48;2.63;;;1.83;;
19006;SDS011;9636;47.382;8.480;2022-10-16T07:11:16;4.03;;;2.10;;
19006;SDS011;9636;47.382;8.480;2022-10-16T07:13:45;5.73;;;1.80;;
19006;SDS011;9636;47.382;8.480;2022-10-16T07:16:13;6.43;;;2.07;;
19006;SDS011;9636;47.382;8.480;2022-10-16T07:18:42;3.67;;;2.30;;
19006;SDS011;9636;47.382;8.480;2022-10-16T07:21:12;3.20;;;2.10;;
19006;SDS011;9636;47.382;8.480;2022-10-16T07:23:40;5.83;;;2.00;;
19006;SDS011;9636;47.382;8.480;2022-10-16T07:26:08;6.03;;;2.40;;
19006;SDS011;9636;47.382;8.480;2022-10-16T07:28:35;5.33;;;1.93;;
19006;SDS011;9636;47.382;8.480;2022-10-16T07:31:02;3.93;;;2.40;;
19006;SDS011;9636;47.382;8.480;2022-10-16T07:33:31;4.27;;;2.07;;
19006;SDS011;9636;47.382;8.480;2022-10-16T07:35:58;3.50;;;2.30;;
19006;SDS011;9636;47.382;8.480;2022-10-16T07:38:26;4.10;;;2.60;;
19006;SDS011;9636;47.382;8.480;2022-10-16T07:40:56;4.07;;;2.23;;
19006;SDS011;9636;47.382;8.480;2022-10-16T07:43:24;2.43;;;2.10;;
19006;SDS011;9636;47.382;8.480;2022-10-16T07:45:51;2.47;;;2.20;;
19006;SDS011;9636;47.382;8.480;2022-10-16T07:48:18;5.60;;;2.60;;
19006;SDS011;9636;47.382;8.480;2022-10-16T07:50:45;7.47;;;3.33;;
19006;SDS011;9636;47.382;8.480;2022-10-16T07:53:12;7.53;;;2.93;;
19006;SDS011;9636;47.382;8.480;2022-10-16T07:55:40;6.73;;;3.00;;
19006;SDS011;9636;47.382;8.480;2022-10-16T07:58:07;4.63;;;3.60;;
19006;SDS011;9636;47.382;8.480;2022-10-16T08:00:35;4.83;;;3.50;;
19006;SDS011;9636;47.382;8.480;2022-10-16T08:03:02;8.03;;;3.53;;
19006;SDS011;9636;47.382;8.480;2022-10-16T08:05:29;5.40;;;3.80;;
19006;SDS011;9636;47.382;8.480;2022-10-16T08:07:58;4.27;;;3.57;;
19006;SDS011;9636;47.382;8.480;2022-10-16T08:10:26;5.10;;;3.53;;
19006;SDS011;9636;47.382;8.480;2022-10-16T08:12:55;9.00;;;3.63;;
19006;SDS011;9636;47.382;8.480;2022-10-16T08:15:22;8.87;;;3.80;;
19006;SDS011;9636;47.382;8.480;2022-10-16T08:17:58;5.17;;;3.10;;
19006;SDS011;9636;47.382;8.480;2022-10-16T08:20:26;3.73;;;2.83;;
19006;SDS011;9636;47.382;8.480;2022-10-16T08:22:54;5.30;;;2.70;;
19006;SDS011;9636;47.382;8.480;2022-10-16T08:25:21;5.50;;;3.07;;
19006;SDS011;9636;47.382;8.480;2022-10-16T08:27:49;4.50;;;2.43;;
19006;SDS011;9636;47.382;8.480;2022-10-16T08:30:18;5.77;;;2.90;;
19006;SDS011;9636;47.382;8.480;2022-10-16T08:32:46;5.30;;;2.50;;
19006;SDS011;9636;47.382;8.480;2022-10-16T08:35:13;5.53;;;2.87;;
19006;SDS011;9636;47.382;8.480;2022-10-16T08:37:41;3.67;;;2.50;;
19006;SDS011;9636;47.382;8.480;2022-10-16T08:40:11;2.80;;;2.40;;
19006;SDS011;9636;47.382;8.480;2022-10-16T08:42:47;3.00;;;2.37;;
19006;SDS011;9636;47.382;8.480;2022-10-16T08:45:31;6.13;;;2.60;;
19006;SDS011;9636;47.382;8.480;2022-10-16T08:48:06;2.37;;;2.13;;
19006;SDS011;9636;47.382;8.480;2022-10-16T08:50:40;4.67;;;1.90;;
19006;SDS011;9636;47.382;8.480;2022-10-16T08:53:09;2.00;;;1.50;;
19006;SDS011;9636;47.382;8.480;2022-10-16T08:55:41;2.57;;;2.03;;
19006;SDS011;9636;47.382;8.480;2022-10-16T08:58:20;5.00;;;1.60;;
19006;SDS011;9636;47.382;8.480;2022-10-16T09:00:53;3.13;;;1.60;;
19006;SDS011;9636;47.382;8.480;2022-10-16T09:03:29;1.60;;;1.40;;
19006;SDS011;9636;47.382;8.480;2022-10-16T09:06:29;5.60;;;1.70;;
19006;SDS011;9636;47.382;8.480;2022-10-16T09:09:16;6.63;;;1.70;;
19006;SDS011;9636;47.382;8.480;2022-10-16T09:12:11;3.20;;;1.93;;
19006;SDS011;9636;47.382;8.480;2022-10-16T09:15:02;3.93;;;1.50;;
19006;SDS011;9636;47.382;8.480;2022-10-16T09:20:44;3.77;;;1.63;;
19006;SDS011;9636;47.382;8.480;2022-10-16T09:23:19;2.27;;;1.53;;
19006;SDS011;9636;47.382;8.480;2022-10-16T09:26:09;4.33;;;1.80;;
19006;SDS011;9636;47.382;8.480;2022-10-16T09:28:52;4.20;;;1.80;;
19006;SDS011;9636;47.382;8.480;2022-10-16T09:31:26;2.13;;;1.87;;
19006;SDS011;9636;47.382;8.480;2022-10-16T09:34:05;3.07;;;1.80;;
19006;SDS011;9636;47.382;8.480;2022-10-16T09:37:01;3.57;;;1.90;;
19006;SDS011;9636;47.382;8.480;2022-10-16T09:39:43;5.03;;;1.95;;
19006;SDS011;9636;47.382;8.480;2022-10-16T09:42:31;3.20;;;1.80;;
19006;SDS011;9636;47.382;8.480;2022-10-16T09:45:05;4.37;;;2.00;;
19006;SDS011;9636;47.382;8.480;2022-10-16T09:47:49;3.77;;;1.90;;
19006;SDS011;9636;47.382;8.480;2022-10-16T09:50:27;1.70;;;1.60;;
19006;SDS011;9636;47.382;8.480;2022-10-16T09:53:05;3.33;;;1.80;;
19006;SDS011;9636;47.382;8.480;2022-10-16T09:55:52;3.50;;;1.60;;
19006;SDS011;9636;47.382;8.480;2022-10-16T09:58:41;2.07;;;1.50;;
19006;SDS011;9636;47.382;8.480;2022-10-16T10:01:28;2.17;;;1.40;;
19006;SDS011;9636;47.382;8.480;2022-10-16T10:04:19;3.50;;;1.80;;
19006;SDS011;9636;47.382;8.480;2022-10-16T10:07:03;8.00;;;1.50;;
19006;SDS011;9636;47.382;8.480;2022-10-16T10:09:42;3.30;;;1.40;;
19006;SDS011;9636;47.382;8.480;2022-10-16T10:12:17;2.10;;;1.50;;
19006;SDS011;9636;47.382;8.480;2022-10-16T10:14:48;3.37;;;1.40;;
19006;SDS011;9636;47.382;8.480;2022-10-16T10:17:19;3.13;;;1.40;;
19006;SDS011;9636;47.382;8.480;2022-10-16T10:19:50;5.77;;;1.80;;
19006;SDS011;9636;47.382;8.480;2022-10-16T10:22:32;3.53;;;1.40;;
19006;SDS011;9636;47.382;8.480;2022-10-16T10:25:20;3.83;;;1.70;;
19006;SDS011;9636;47.382;8.480;2022-10-16T10:28:09;1.77;;;1.38;;
19006;SDS011;9636;47.382;8.480;2022-10-16T10:31:06;1.85;;;1.40;;
19006;SDS011;9636;47.382;8.480;2022-10-16T10:33:40;2.50;;;1.43;;
19006;SDS011;9636;47.382;8.480;2022-10-16T10:36:19;1.40;;;1.30;;
19006;SDS011;9636;47.382;8.480;2022-10-16T10:38:56;2.80;;;1.10;;
19006;SDS011;9636;47.382;8.480;2022-10-16T10:44:25;1.25;;;1.17;;
19006;SDS011;9636;47.382;8.480;2022-10-16T10:47:06;1.30;;;1.20;;
19006;SDS011;9636;47.382;8.480;2022-10-16T10:49:51;1.17;;;1.08;;
19006;SDS011;9636;47.382;8.480;2022-10-16T10:55:24;1.35;;;1.20;;
19006;SDS011;9636;47.382;8.480;2022-10-16T10:58:06;1.92;;;1.20;;
19006;SDS011;9636;47.382;8.480;2022-10-16T11:01:01;2.40;;;1.25;;
19006;SDS011;9636;47.382;8.480;2022-10-16T11:03:47;2.90;;;1.10;;
19006;SDS011;9636;47.382;8.480;2022-10-16T11:06:39;3.10;;;1.17;;
19006;SDS011;9636;47.382;8.480;2022-10-16T11:09:09;1.37;;;0.90;;
19006;SDS011;9636;47.382;8.480;2022-10-16T11:11:45;2.97;;;1.38;;
19006;SDS011;9636;47.382;8.480;2022-10-16T11:14:18;2.72;;;1.20;;
19006;SDS011;9636;47.382;8.480;2022-10-16T11:16:56;2.63;;;1.42;;
19006;SDS011;9636;47.382;8.480;2022-10-16T11:19:31;2.35;;;1.40;;
19006;SDS011;9636;47.382;8.480;2022-10-16T11:22:14;3.15;;;1.40;;
19006;SDS011;9636;47.382;8.480;2022-10-16T11:24:48;2.03;;;1.30;;
19006;SDS011;9636;47.382;8.480;2022-10-16T11:27:23;1.30;;;1.20;;
19006;SDS011;9636;47.382;8.480;2022-10-16T11:29:57;1.50;;;1.15;;
19006;SDS011;9636;47.382;8.480;2022-10-16T11:32:28;1.92;;;1.20;;
19006;SDS011;9636;47.382;8.480;2022-10-16T11:35:00;4.30;;;1.17;;
19006;SDS011;9636;47.382;8.480;2022-10-16T11:37:36;1.65;;;0.98;;
19006;SDS011;9636;47.382;8.480;2022-10-16T11:40:14;1.63;;;1.10;;
19006;SDS011;9636;47.382;8.480;2022-10-16T11:42:54;3.00;;;1.17;;
19006;SDS011;9636;47.382;8.480;2022-10-16T11:45:29;1.38;;;1.10;;
19006;SDS011;9636;47.382;8.480;2022-10-16T11:48:02;2.17;;;1.35;;
19006;SDS011;9636;47.382;8.480;2022-10-16T11:50:39;1.35;;;1.20;;
19006;SDS011;9636;47.382;8.480;2022-10-16T11:53:14;4.63;;;1.30;;
19006;SDS011;9636;47.382;8.480;2022-10-16T11:55:47;1.50;;;1.40;;
19006;SDS011;9636;47.382;8.480;2022-10-16T11:58:19;1.50;;;1.40;;
19006;SDS011;9636;47.382;8.480;2022-10-16T12:00:53;4.68;;;1.50;;
19006;SDS011;9636;47.382;8.480;2022-10-16T12:03:27;2.53;;;1.30;;
19006;SDS011;9636;47.382;8.480;2022-10-16T12:08:53;1.17;;;1.00;;
19006;SDS011;9636;47.382;8.480;2022-10-16T12:11:31;3.25;;;1.48;;
19006;SDS011;9636;47.382;8.480;2022-10-16T12:14:06;9.20;;;1.60;;
19006;SDS011;9636;47.382;8.480;2022-10-16T12:16:54;3.72;;;1.50;;
19006;SDS011;9636;47.382;8.480;2022-10-16T12:19:25;3.10;;;1.35;;
19006;SDS011;9636;47.382;8.480;2022-10-16T12:21:58;3.42;;;1.13;;
19006;SDS011;9636;47.382;8.480;2022-10-16T12:24:39;14.85;;;1.90;;
19006;SDS011;9636;47.382;8.480;2022-10-16T12:27:21;2.40;;;1.30;;
19006;SDS011;9636;47.382;8.480;2022-10-16T12:29:57;2.95;;;1.35;;
19006;SDS011;9636;47.382;8.480;2022-10-16T12:32:29;5.70;;;1.58;;
19006;SDS011;9636;47.382;8.480;2022-10-16T12:34:58;2.05;;;1.00;;
19006;SDS011;9636;47.382;8.480;2022-10-16T12:37:32;1.33;;;1.05;;
19006;SDS011;9636;47.382;8.480;2022-10-16T12:40:11;4.20;;;1.48;;
19006;SDS011;9636;47.382;8.480;2022-10-16T12:42:41;1.52;;;1.15;;
19006;SDS011;9636;47.382;8.480;2022-10-16T12:45:29;3.80;;;1.45;;
19006;SDS011;9636;47.382;8.480;2022-10-16T12:47:58;2.25;;;1.20;;
19006;SDS011;9636;47.382;8.480;2022-10-16T12:50:28;3.92;;;1.60;;
19006;SDS011;9636;47.382;8.480;2022-10-16T12:52:57;1.45;;;1.30;;
19006;SDS011;9636;47.382;8.480;2022-10-16T12:55:25;1.40;;;1.30;;
19006;SDS011;9636;47.382;8.480;2022-10-16T12:58:04;1.42;;;1.33;;
19006;SDS011;9636;47.382;8.480;2022-10-16T13:00:44;2.33;;;1.42;;
19006;SDS011;9636;47.382;8.480;2022-10-16T13:03:23;4.45;;;1.30;;
19006;SDS011;9636;47.382;8.480;2022-10-16T13:06:11;1.40;;;1.10;;
19006;SDS011;9636;47.382;8.480;2022-10-16T13:08:52;4.05;;;1.30;;
19006;SDS011;9636;47.382;8.480;2022-10-16T13:11:39;2.53;;;1.30;;
19006;SDS011;9636;47.382;8.480;2022-10-16T13:14:31;2.05;;;1.10;;
19006;SDS011;9636;47.382;8.480;2022-10-16T13:17:30;2.55;;;1.20;;
19006;SDS011;9636;47.382;8.480;2022-10-16T13:20:06;1.13;;;1.02;;
19006;SDS011;9636;47.382;8.480;2022-10-16T13:22:45;4.03;;;1.10;;
19006;SDS011;9636;47.382;8.480;2022-10-16T13:25:21;2.40;;;1.33;;
19006;SDS011;9636;47.382;8.480;2022-10-16T13:27:55;1.95;;;1.45;;
19006;SDS011;9636;47.382;8.480;2022-10-16T13:30:28;2.45;;;1.30;;
19006;SDS011;9636;47.382;8.480;2022-10-16T13:33:13;1.38;;;1.27;;
19006;SDS011;9636;47.382;8.480;2022-10-16T13:35:47;2.15;;;1.10;;
19006;SDS011;9636;47.382;8.480;2022-10-16T13:38:19;2.55;;;1.50;;
19006;SDS011;9636;47.382;8.480;2022-10-16T13:40:50;1.40;;;1.30;;
19006;SDS011;9636;47.382;8.480;2022-10-16T13:43:20;1.92;;;1.35;;
19006;SDS011;9636;47.382;8.480;2022-10-16T13:45:54;3.22;;;1.20;;
19006;SDS011;9636;47.382;8.480;2022-10-16T13:48:35;1.30;;;1.20;;
19006;SDS011;9636;47.382;8.480;2022-10-16T13:51:11;14.57;;;1.85;;
19006;SDS011;9636;47.382;8.480;2022-10-16T13:53:40;3.10;;;1.40;;
19006;SDS011;9636;47.382;8.480;2022-10-16T13:56:10;3.90;;;1.50;;
19006;SDS011;9636;47.382;8.480;2022-10-16T13:58:40;5.90;;;1.65;;
19006;SDS011;9636;47.382;8.480;2022-10-16T14:01:15;2.67;;;1.35;;
19006;SDS011;9636;47.382;8.480;2022-10-16T14:03:48;1.35;;;1.10;;
19006;SDS011;9636;47.382;8.480;2022-10-16T14:06:17;2.90;;;1.40;;
19006;SDS011;9636;47.382;8.480;2022-10-16T14:08:53;2.00;;;1.30;;
19006;SDS011;9636;47.382;8.480;2022-10-16T14:11:25;2.20;;;1.10;;
19006;SDS011;9636;47.382;8.480;2022-10-16T14:13:55;2.45;;;1.20;;
19006;SDS011;9636;47.382;8.480;2022-10-16T14:16:25;2.35;;;1.45;;
19006;SDS011;9636;47.382;8.480;2022-10-16T14:19:04;2.25;;;1.38;;
19006;SDS011;9636;47.382;8.480;2022-10-16T14:21:39;2.55;;;1.40;;
19006;SDS011;9636;47.382;8.480;2022-10-16T14:24:10;2.10;;;1.23;;
19006;SDS011;9636;47.382;8.480;2022-10-16T14:26:51;3.67;;;1.63;;
19006;SDS011;9636;47.382;8.480;2022-10-16T14:29:20;1.50;;;1.40;;
19006;SDS011;9636;47.382;8.480;2022-10-16T14:31:55;2.28;;;1.48;;
19006;SDS011;9636;47.382;8.480;2022-10-16T14:34:26;4.03;;;1.70;;
19006;SDS011;9636;47.382;8.480;2022-10-16T14:36:58;1.38;;;1.20;;
19006;SDS011;9636;47.382;8.480;2022-10-16T14:39:29;2.63;;;1.70;;
19006;SDS011;9636;47.382;8.480;2022-10-16T14:41:57;3.50;;;1.50;;
19006;SDS011;9636;47.382;8.480;2022-10-16T14:44:38;1.88;;;1.70;;
19006;SDS011;9636;47.382;8.480;2022-10-16T14:47:07;3.58;;;1.55;;
19006;SDS011;9636;47.382;8.480;2022-10-16T14:49:52;4.53;;;1.80;;
19006;SDS011;9636;47.382;8.480;2022-10-16T14:52:22;7.70;;;1.90;;
19006;SDS011;9636;47.382;8.480;2022-10-16T14:54:49;3.05;;;1.63;;
19006;SDS011;9636;47.382;8.480;2022-10-16T20:57:24;6.17;;;2.57;;
19006;SDS011;9636;47.382;8.480;2022-10-16T20:59:51;9.37;;;2.30;;
19006;SDS011;9636;47.382;8.480;2022-10-16T21:02:19;4.60;;;2.70;;
19006;SDS011;9636;47.382;8.480;2022-10-16T21:04:47;6.63;;;2.70;;
19006;SDS011;9636;47.382;8.480;2022-10-16T21:07:14;6.73;;;2.50;;
19006;SDS011;9636;47.382;8.480;2022-10-16T21:09:41;7.50;;;2.20;;
19006;SDS011;9636;47.382;8.480;2022-10-16T21:12:08;4.97;;;2.60;;
19006;SDS011;9636;47.382;8.480;2022-10-16T21:14:36;8.50;;;2.40;;
19006;SDS011;9636;47.382;8.480;2022-10-16T21:17:03;6.03;;;2.60;;
19006;SDS011;9636;47.382;8.480;2022-10-16T21:19:30;6.20;;;2.73;;
19006;SDS011;9636;47.382;8.480;2022-10-16T21:21:57;9.63;;;2.80;;
19006;SDS011;9636;47.382;8.480;2022-10-16T21:24:24;4.83;;;2.90;;
19006;SDS011;9636;47.382;8.480;2022-10-16T21:26:51;5.97;;;2.77;;
19006;SDS011;9636;47.382;8.480;2022-10-16T21:29:17;7.87;;;2.70;;
19006;SDS011;9636;47.382;8.480;2022-10-16T21:31:46;9.57;;;2.70;;
19006;SDS011;9636;47.382;8.480;2022-10-16T21:34:12;4.80;;;2.50;;
19006;SDS011;9636;47.382;8.480;2022-10-16T21:36:40;6.23;;;2.63;;
19006;SDS011;9636;47.382;8.480;2022-10-16T21:39:08;4.50;;;2.57;;
19006;SDS011;9636;47.382;8.480;2022-10-16T21:41:36;5.97;;;2.67;;
19006;SDS011;9636;47.382;8.480;2022-10-16T21:44:04;5.67;;;2.30;;
19006;SDS011;9636;47.382;8.480;2022-10-16T21:46:32;4.37;;;2.30;;